createdAt,value
2023-01-15T00:01:02.693Z,16.60
2023-01-15T00:03:31.413Z,16.73
2023-01-15T00:06:03.506Z,17.13
2023-01-15T00:08:31.482Z,16.30
2023-01-15T00:10:59.385Z,17.00
2023-01-15T00:13:29.049Z,17.03
2023-01-15T00:16:04.128Z,17.20
2023-01-15T00:18:32.295Z,17.80
2023-01-15T00:21:01.141Z,17.77
2023-01-15T00:23:48.932Z,17.20
2023-01-15T00:26:35.358Z,16.80
2023-01-15T00:29:03.608Z,16.97
2023-01-15T00:31:33.976Z,17.30
2023-01-15T00:34:02.044Z,17.97
2023-01-15T00:36:30.784Z,17.70
2023-01-15T00:38:58.767Z,17.03
2023-01-15T00:41:26.767Z,16.50
2023-01-15T00:43:55.475Z,17.47
2023-01-15T00:46:24.493Z,17.57
2023-01-15T00:48:53.946Z,17.00
2023-01-15T00:51:21.872Z,16.30
2023-01-15T00:53:49.862Z,16.20
2023-01-15T00:56:17.798Z,17.90
2023-01-15T00:58:46.783Z,17.27
2023-01-15T01:01:15.179Z,17.47
2023-01-15T01:03:43.222Z,17.23
2023-01-15T01:06:12.500Z,16.50
2023-01-15T01:08:40.368Z,17.10
2023-01-15T01:11:11.188Z,18.47
2023-01-15T01:13:39.992Z,17.80
2023-01-15T01:16:24.187Z,17.20
2023-01-15T01:18:52.508Z,17.60
2023-01-15T01:21:22.298Z,18.00
2023-01-15T01:23:50.563Z,16.40
2023-01-15T01:26:19.395Z,17.17
2023-01-15T01:28:51.397Z,17.17
2023-01-15T01:31:20.073Z,16.83
2023-01-15T01:33:50.031Z,17.97
2023-01-15T01:36:19.031Z,17.83
2023-01-15T01:38:50.808Z,16.97
2023-01-15T01:41:19.060Z,16.17
2023-01-15T01:43:59.572Z,16.60
2023-01-15T01:46:29.839Z,15.87
2023-01-15T01:49:01.238Z,15.97
2023-01-15T01:51:36.003Z,16.30
2023-01-15T01:54:06.007Z,16.40
2023-01-15T01:56:37.086Z,16.57
2023-01-15T01:59:07.194Z,15.93
2023-01-15T02:01:35.309Z,16.10
2023-01-15T02:04:04.296Z,16.23
2023-01-15T02:06:33.273Z,16.20
2023-01-15T02:09:01.302Z,16.33
2023-01-15T02:11:31.755Z,15.07
2023-01-15T02:14:05.614Z,16.50
2023-01-15T02:16:40.058Z,15.37
2023-01-15T02:19:21.627Z,15.10
2023-01-15T02:21:54.388Z,13.73
2023-01-15T02:24:32.964Z,14.67
2023-01-15T02:27:10.917Z,14.27
2023-01-15T02:29:51.162Z,14.43
2023-01-15T02:32:28.059Z,13.30
2023-01-15T02:35:00.673Z,14.23
2023-01-15T02:37:31.805Z,14.17
2023-01-15T02:40:03.345Z,14.57
2023-01-15T02:42:34.729Z,13.87
2023-01-15T02:45:07.319Z,13.07
2023-01-15T02:47:39.073Z,14.00
2023-01-15T02:50:12.293Z,13.63
2023-01-15T02:52:45.367Z,13.47
2023-01-15T02:55:17.394Z,13.60
2023-01-15T02:57:49.904Z,13.50
2023-01-15T03:00:20.596Z,14.60
2023-01-15T03:02:54.993Z,15.23
2023-01-15T03:05:26.704Z,13.50
2023-01-15T03:07:57.847Z,13.50
2023-01-15T03:10:36.363Z,13.57
2023-01-15T03:13:07.391Z,13.13
2023-01-15T03:16:07.896Z,13.00
2023-01-15T03:18:42.323Z,13.27
2023-01-15T03:21:13.026Z,13.30
2023-01-15T03:23:47.198Z,13.10
2023-01-15T03:26:15.124Z,13.07
2023-01-15T03:28:46.091Z,13.30
2023-01-15T03:31:14.098Z,12.80
2023-01-15T03:33:43.203Z,13.57
2023-01-15T03:36:11.329Z,13.13
2023-01-15T03:38:41.284Z,13.73
2023-01-15T03:41:16.915Z,15.10
2023-01-15T03:43:56.768Z,14.27
2023-01-15T03:46:41.046Z,14.90
2023-01-15T03:49:20.197Z,15.53
2023-01-15T03:51:54.784Z,14.67
2023-01-15T03:54:28.159Z,15.13
2023-01-15T03:57:05.184Z,14.00
2023-01-15T03:59:40.482Z,13.37
2023-01-15T04:02:11.222Z,14.00
2023-01-15T04:04:40.973Z,14.23
2023-01-15T04:07:08.956Z,13.00
2023-01-15T04:09:40.257Z,13.97
2023-01-15T04:12:09.025Z,12.97
2023-01-15T04:14:38.227Z,13.30
2023-01-15T04:17:06.207Z,13.43
2023-01-15T04:19:34.372Z,13.97
2023-01-15T04:22:02.343Z,12.97
2023-01-15T04:24:30.266Z,12.03
2023-01-15T04:26:58.322Z,13.20
2023-01-15T04:29:26.404Z,13.03
2023-01-15T04:31:57.956Z,13.27
2023-01-15T04:34:26.899Z,13.73
2023-01-15T04:36:55.090Z,13.63
2023-01-15T04:39:23.178Z,13.90
2023-01-15T04:42:08.273Z,13.17
2023-01-15T04:44:37.650Z,13.30
2023-01-15T04:47:07.826Z,13.50
2023-01-15T04:49:36.173Z,14.33
2023-01-15T04:52:04.977Z,13.13
2023-01-15T04:54:33.280Z,12.93
2023-01-15T04:57:01.354Z,13.33
2023-01-15T04:59:29.288Z,12.90
2023-01-15T05:02:05.045Z,12.77
2023-01-15T05:04:36.252Z,12.90
2023-01-15T05:07:05.747Z,12.87
2023-01-15T05:09:33.952Z,12.90
2023-01-15T05:12:01.996Z,12.53
2023-01-15T05:14:29.982Z,12.33
2023-01-15T05:16:57.933Z,12.77
2023-01-15T05:19:25.936Z,13.17
2023-01-15T05:21:55.316Z,11.77
2023-01-15T05:24:23.355Z,11.90
2023-01-15T05:26:51.336Z,11.50
2023-01-15T05:29:19.332Z,12.03
2023-01-15T05:31:47.825Z,12.63
2023-01-15T05:34:34.214Z,12.63
2023-01-15T05:37:03.577Z,11.67
2023-01-15T05:39:31.490Z,11.47
2023-01-15T05:41:59.451Z,11.67
2023-01-15T05:44:29.154Z,11.37
2023-01-15T05:46:59.176Z,10.83
2023-01-15T05:49:30.153Z,11.07
2023-01-15T05:51:58.502Z,10.47
2023-01-15T05:54:29.617Z,9.83
2023-01-15T05:56:58.101Z,11.27
2023-01-15T05:59:27.988Z,10.67
2023-01-15T06:01:57.024Z,10.03
2023-01-15T06:04:25.587Z,10.47
2023-01-15T06:06:55.618Z,9.83
2023-01-15T06:09:24.459Z,9.97
2023-01-15T06:11:54.221Z,10.80
2023-01-15T06:14:22.553Z,11.60
2023-01-15T06:16:50.458Z,11.40
2023-01-15T06:19:18.435Z,10.23
2023-01-15T06:21:46.439Z,10.37
2023-01-15T06:24:16.593Z,9.87
2023-01-15T06:26:44.662Z,10.20
2023-01-15T06:29:18.644Z,10.10
2023-01-15T06:31:46.782Z,11.67
2023-01-15T06:34:14.714Z,14.83
2023-01-15T06:36:42.896Z,16.43
2023-01-15T06:39:10.946Z,16.00
2023-01-15T06:41:56.843Z,16.67
2023-01-15T06:44:43.557Z,16.10
2023-01-15T06:47:24.956Z,16.13
2023-01-15T06:49:55.558Z,15.63
2023-01-15T06:52:24.415Z,15.77
2023-01-15T06:54:52.955Z,14.90
2023-01-15T06:57:21.527Z,14.23
2023-01-15T06:59:52.126Z,15.03
2023-01-15T07:02:21.821Z,14.53
2023-01-15T07:04:52.193Z,14.30
2023-01-15T07:07:21.713Z,14.50
2023-01-15T07:09:50.175Z,22.23
2023-01-15T07:12:19.517Z,22.73
2023-01-15T07:14:48.095Z,21.83
2023-01-15T07:17:18.741Z,23.40
2023-01-15T07:19:47.644Z,23.83
2023-01-15T07:22:15.697Z,21.57
2023-01-15T07:24:43.723Z,21.63
2023-01-15T07:27:11.628Z,24.93
2023-01-15T07:29:39.571Z,26.10
2023-01-15T07:32:07.781Z,24.57
2023-01-15T07:34:37.175Z,22.33
2023-01-15T07:37:05.259Z,20.67
2023-01-15T07:39:33.311Z,20.67
2023-01-15T07:42:19.149Z,19.23
2023-01-15T07:45:05.187Z,18.03
2023-01-15T07:47:51.170Z,17.23
2023-01-15T07:50:23.418Z,18.30
2023-01-15T07:52:53.467Z,18.73
2023-01-15T07:55:22.240Z,18.03
2023-01-15T07:57:50.461Z,17.60
2023-01-15T08:00:22.555Z,17.63
2023-01-15T08:02:51.008Z,17.13
2023-01-15T08:05:20.603Z,17.40
2023-01-15T08:07:49.400Z,17.83
2023-01-15T08:10:17.921Z,17.00
2023-01-15T08:13:03.219Z,17.47
2023-01-15T08:15:36.136Z,17.60
2023-01-15T08:18:05.101Z,16.40
2023-01-15T08:20:36.450Z,17.37
2023-01-15T08:23:04.486Z,16.80
2023-01-15T08:25:32.574Z,17.63
2023-01-15T08:28:02.379Z,17.50
2023-01-15T08:30:30.417Z,17.00
2023-01-15T08:33:02.488Z,17.53
2023-01-15T08:35:30.424Z,18.77
2023-01-15T08:38:00.148Z,19.50
2023-01-15T08:40:28.241Z,18.77
2023-01-15T08:42:56.719Z,19.93
2023-01-15T08:45:24.747Z,20.80
2023-01-15T08:47:56.558Z,20.90
2023-01-15T08:50:24.579Z,23.43
2023-01-15T08:52:52.698Z,23.30
2023-01-15T08:55:22.136Z,22.20
2023-01-15T08:57:51.930Z,21.27
2023-01-15T09:00:21.805Z,20.60
2023-01-15T09:02:50.317Z,20.83
2023-01-15T09:05:18.936Z,20.83
2023-01-15T09:07:47.097Z,23.37
2023-01-15T09:10:15.119Z,20.23
2023-01-15T09:12:44.524Z,20.27
2023-01-15T09:15:12.625Z,20.47
2023-01-15T09:17:40.986Z,21.23
2023-01-15T09:20:11.432Z,21.47
2023-01-15T09:22:39.536Z,21.33
2023-01-15T09:25:08.829Z,19.67
2023-01-15T09:27:38.103Z,21.43
2023-01-15T09:30:08.934Z,19.53
2023-01-15T09:32:37.012Z,19.50
2023-01-15T09:35:05.129Z,21.00
2023-01-15T09:37:33.243Z,19.13
2023-01-15T09:40:02.405Z,19.70
2023-01-15T09:42:41.697Z,18.27
2023-01-15T09:45:20.378Z,18.00
2023-01-15T09:48:25.732Z,16.33
2023-01-15T09:51:03.876Z,16.97
2023-01-15T09:53:48.366Z,14.83
2023-01-15T09:56:24.665Z,15.10
2023-01-15T09:58:54.785Z,14.50
2023-01-15T10:01:28.187Z,19.30
2023-01-15T10:04:03.473Z,13.93
2023-01-15T10:06:35.191Z,13.73
2023-01-15T10:09:11.801Z,14.93
2023-01-15T10:12:09.805Z,12.47
2023-01-15T10:14:47.057Z,15.17
2023-01-15T10:17:22.734Z,16.53
2023-01-15T10:19:50.824Z,13.40
2023-01-15T10:22:30.946Z,12.83
2023-01-15T10:24:59.864Z,13.10
2023-01-15T10:27:33.562Z,11.97
2023-01-15T10:30:07.726Z,12.00
2023-01-15T10:33:01.062Z,12.83
2023-01-15T10:35:40.311Z,11.27
2023-01-15T10:38:17.710Z,12.00
2023-01-15T10:41:26.113Z,12.57
2023-01-15T10:44:01.633Z,13.13
2023-01-15T10:46:33.743Z,12.83
2023-01-15T10:49:06.893Z,12.33
2023-01-15T10:51:42.334Z,12.87
2023-01-15T10:54:18.173Z,13.63
2023-01-15T10:56:51.367Z,13.43
2023-01-15T10:59:23.488Z,13.43
2023-01-15T11:01:54.012Z,13.57
2023-01-15T11:04:24.786Z,13.30
2023-01-15T11:06:52.805Z,13.50
2023-01-15T11:09:24.945Z,11.90
2023-01-15T11:12:12.281Z,11.60
2023-01-15T11:14:59.285Z,11.70
2023-01-15T11:17:48.780Z,10.33
2023-01-15T11:20:26.542Z,9.80
2023-01-15T11:22:56.401Z,9.60
2023-01-15T11:25:33.257Z,10.37
2023-01-15T11:28:03.680Z,10.90
2023-01-15T11:30:33.548Z,10.27
2023-01-15T11:33:06.668Z,8.40
2023-01-15T11:35:36.175Z,8.47
2023-01-15T11:38:06.484Z,8.77
2023-01-15T11:40:34.994Z,8.40
2023-01-15T11:43:20.821Z,9.30
2023-01-15T11:46:08.519Z,9.50
2023-01-15T11:49:03.301Z,8.37
2023-01-15T11:51:41.567Z,9.50
2023-01-15T11:54:13.702Z,8.90
2023-01-15T11:56:44.087Z,9.43
2023-01-15T11:59:14.728Z,9.70
2023-01-15T12:01:54.786Z,8.53
2023-01-15T12:04:32.071Z,8.70
2023-01-15T12:07:03.268Z,8.60
2023-01-15T12:09:58.759Z,8.57
2023-01-15T12:12:37.042Z,8.70
2023-01-15T12:15:24.805Z,9.57
2023-01-15T12:18:26.896Z,8.63
2023-01-15T12:21:03.965Z,8.80
2023-01-15T12:24:11.939Z,7.90
2023-01-15T12:26:52.648Z,7.97
2023-01-15T12:29:24.024Z,7.33
2023-01-15T12:31:56.557Z,8.70
2023-01-15T12:34:27.986Z,8.43
2023-01-15T12:37:00.036Z,8.43
2023-01-15T12:39:34.961Z,8.13
2023-01-15T12:42:25.115Z,9.10
2023-01-15T12:45:04.711Z,8.00
2023-01-15T12:47:40.228Z,9.00
2023-01-15T12:50:23.949Z,8.20
2023-01-15T12:52:56.307Z,8.70
2023-01-15T12:55:29.507Z,8.47
2023-01-15T12:58:01.765Z,7.83
2023-01-15T13:00:34.004Z,8.77
2023-01-15T13:03:15.837Z,8.57
2023-01-15T13:05:48.457Z,8.50
2023-01-15T13:08:22.862Z,7.83
2023-01-15T13:10:53.118Z,9.00
2023-01-15T13:13:24.694Z,9.33
2023-01-15T13:16:13.971Z,9.23
2023-01-15T13:18:55.389Z,8.60
2023-01-15T13:21:25.859Z,9.27
2023-01-15T13:24:14.220Z,8.87
2023-01-15T13:27:25.524Z,10.37
2023-01-15T13:30:14.815Z,8.53
2023-01-15T13:32:46.563Z,9.57
2023-01-15T13:35:29.934Z,10.27
2023-01-15T13:38:01.073Z,9.07
2023-01-15T13:40:32.972Z,9.83
2023-01-15T13:43:04.068Z,9.97
2023-01-15T13:45:38.133Z,9.73
2023-01-15T13:48:09.916Z,9.17
2023-01-15T13:50:42.686Z,11.00
2023-01-15T13:53:30.292Z,10.17
2023-01-15T13:56:02.607Z,9.77
2023-01-15T13:58:33.264Z,9.43
2023-01-15T14:01:09.019Z,10.30
2023-01-15T14:03:39.297Z,9.60
2023-01-15T14:06:09.883Z,9.57
2023-01-15T14:08:41.141Z,10.37
2023-01-15T14:11:36.686Z,9.97
2023-01-15T14:14:33.366Z,9.80
2023-01-15T14:17:15.640Z,11.27
2023-01-15T14:20:11.627Z,11.33
2023-01-15T14:22:55.912Z,12.50
2023-01-15T14:25:46.352Z,10.13
2023-01-15T14:28:28.624Z,11.87
2023-01-15T14:31:35.206Z,11.13
2023-01-15T14:34:14.667Z,12.90
2023-01-15T14:36:51.006Z,12.30
2023-01-15T14:39:48.841Z,12.80
2023-01-15T14:42:42.869Z,13.03
2023-01-15T14:45:22.227Z,13.00
2023-01-15T14:47:53.664Z,13.50
2023-01-15T14:50:46.441Z,14.00
2023-01-15T14:53:43.597Z,14.40
2023-01-15T14:56:20.791Z,16.13
2023-01-15T14:58:59.288Z,14.27
2023-01-15T15:01:43.030Z,14.27
2023-01-15T15:04:23.519Z,14.87
2023-01-15T15:06:56.214Z,16.23
2023-01-15T15:09:32.463Z,14.83
2023-01-15T15:12:21.524Z,16.40
2023-01-15T15:14:59.411Z,15.03
2023-01-15T15:17:33.710Z,16.77
2023-01-15T15:20:18.989Z,16.63
2023-01-15T15:22:49.477Z,16.67
2023-01-15T15:25:24.447Z,16.23
2023-01-15T15:28:03.048Z,17.87
2023-01-15T15:30:35.869Z,18.80
2023-01-15T15:33:06.631Z,18.47
2023-01-15T15:35:36.301Z,20.23
2023-01-15T15:38:09.237Z,20.50
2023-01-15T15:40:38.627Z,19.63
2023-01-15T15:43:32.706Z,21.30
2023-01-15T15:46:18.183Z,20.63
2023-01-15T15:48:53.352Z,21.30
2023-01-15T15:51:34.138Z,20.73
2023-01-15T15:54:11.597Z,21.33
2023-01-15T15:56:42.656Z,21.57
2023-01-15T15:59:30.737Z,21.27
2023-01-15T16:02:01.949Z,22.13
2023-01-15T16:04:30.484Z,19.67
2023-01-15T16:06:59.884Z,21.93
2023-01-15T16:09:28.021Z,21.80
2023-01-15T16:12:07.800Z,21.40
2023-01-15T16:14:38.499Z,20.97
2023-01-15T16:17:10.198Z,21.03
2023-01-15T16:19:41.054Z,22.57
2023-01-15T16:22:16.650Z,23.07
2023-01-15T16:24:56.575Z,22.77
2023-01-15T16:27:31.054Z,24.10
2023-01-15T16:29:59.456Z,23.67
2023-01-15T16:32:31.748Z,24.27
2023-01-15T16:35:07.129Z,23.67
2023-01-15T16:37:36.980Z,24.30
2023-01-15T16:40:07.312Z,23.23
2023-01-15T16:42:37.808Z,23.30
2023-01-15T16:45:13.645Z,17.87
2023-01-15T16:47:42.746Z,20.50
2023-01-15T16:50:31.556Z,22.10
2023-01-15T16:53:02.552Z,24.30
2023-01-15T16:55:57.627Z,20.93
2023-01-15T16:58:44.003Z,18.33
2023-01-15T17:01:35.279Z,19.83
2023-01-15T17:04:04.774Z,20.20
2023-01-15T17:06:33.558Z,19.80
2023-01-15T17:09:03.047Z,19.43
2023-01-15T17:11:33.555Z,21.17
2023-01-15T17:14:20.392Z,20.97
2023-01-15T17:17:04.683Z,21.00
2023-01-15T17:19:37.357Z,18.70
2023-01-15T17:25:31.068Z,21.37
2023-01-15T17:28:00.440Z,22.73
2023-01-15T17:30:31.210Z,24.60
2023-01-15T17:32:59.681Z,26.30
2023-01-15T17:35:49.148Z,25.07
2023-01-15T17:38:19.122Z,23.20
2023-01-15T17:40:48.705Z,27.63
2023-01-15T17:43:18.801Z,28.43
2023-01-15T17:45:46.931Z,29.83
2023-01-15T17:48:15.053Z,30.77
2023-01-15T17:50:43.402Z,32.63
2023-01-15T17:53:11.347Z,34.03
2023-01-15T17:55:57.198Z,34.17
2023-01-15T17:58:44.094Z,34.20
2023-01-15T18:01:37.795Z,26.37
2023-01-15T18:04:23.971Z,27.40
2023-01-15T18:06:54.849Z,32.27
2023-01-15T18:09:24.952Z,32.30
2023-01-15T18:11:55.625Z,30.53
2023-01-15T18:14:26.650Z,26.30
2023-01-15T18:16:54.874Z,23.13
2023-01-15T18:19:23.302Z,25.70
2023-01-15T18:21:52.798Z,25.40
2023-01-15T18:24:22.791Z,26.53
2023-01-15T18:26:52.718Z,28.90
2023-01-15T18:29:21.778Z,27.60
2023-01-15T18:31:51.229Z,28.57
2023-01-15T18:34:19.272Z,28.87
2023-01-15T18:36:47.968Z,33.20
2023-01-15T18:39:16.090Z,34.30
2023-01-15T18:42:01.653Z,29.23
2023-01-15T18:44:47.244Z,30.20
2023-01-15T18:47:18.306Z,38.30
2023-01-15T18:49:47.740Z,43.30
2023-01-15T18:52:34.933Z,46.80
2023-01-15T18:55:04.108Z,47.80
2023-01-15T18:57:34.343Z,38.30
2023-01-15T19:00:02.356Z,48.00
2023-01-15T19:02:31.860Z,36.57
2023-01-15T19:05:00.776Z,34.00
2023-01-15T19:07:28.855Z,29.73
2023-01-15T19:09:56.800Z,30.13
2023-01-15T19:12:24.662Z,32.03
2023-01-15T19:15:10.014Z,25.90
2023-01-15T19:18:11.806Z,26.57
2023-01-15T19:20:40.189Z,21.73
2023-01-15T19:23:09.321Z,22.67
2023-01-15T19:25:39.065Z,21.00
2023-01-15T19:28:07.922Z,23.37
2023-01-15T19:30:39.701Z,22.07
2023-01-15T19:33:12.402Z,24.23
2023-01-15T19:35:43.121Z,26.10
2023-01-15T19:38:11.805Z,22.10
2023-01-15T19:40:42.116Z,19.57
2023-01-15T19:43:28.679Z,19.40
2023-01-15T19:46:14.795Z,19.90
2023-01-15T19:49:02.168Z,16.23
2023-01-15T19:52:01.306Z,17.37
2023-01-15T19:54:43.188Z,16.50
2023-01-15T19:57:11.465Z,19.07
2023-01-15T19:59:39.502Z,18.30
2023-01-15T20:02:07.694Z,19.83
2023-01-15T20:04:37.052Z,20.17
2023-01-15T20:07:04.946Z,18.07
2023-01-15T20:09:32.982Z,20.03
2023-01-15T20:12:18.296Z,20.10
2023-01-15T20:14:47.397Z,20.53
2023-01-15T20:17:15.527Z,16.70
2023-01-15T20:19:44.855Z,17.70
2023-01-15T20:22:12.849Z,19.03
2023-01-15T20:24:44.047Z,18.73
2023-01-15T20:27:13.051Z,21.77
2023-01-15T20:29:41.364Z,21.00
2023-01-15T20:32:09.411Z,24.23
2023-01-15T20:34:38.644Z,23.90
2023-01-15T20:37:08.831Z,20.80
2023-01-15T20:39:36.935Z,23.53
2023-01-15T20:42:37.211Z,29.57
2023-01-15T20:45:11.153Z,24.67
2023-01-15T20:47:57.672Z,20.07
2023-01-15T20:50:27.120Z,18.20
2023-01-15T20:52:58.798Z,20.00
2023-01-15T20:55:45.572Z,20.30
2023-01-15T20:58:17.774Z,18.63
2023-01-15T21:00:45.823Z,22.07
2023-01-15T21:03:13.914Z,22.07
2023-01-15T21:05:45.020Z,21.87
2023-01-15T21:08:14.458Z,23.07
2023-01-15T21:10:42.627Z,24.17
2023-01-15T21:13:12.275Z,25.67
2023-01-15T21:15:40.516Z,25.10
2023-01-15T21:18:09.801Z,25.03
2023-01-15T21:20:40.018Z,25.47
2023-01-15T21:23:07.904Z,27.13
2023-01-15T21:25:37.367Z,25.43
2023-01-15T21:28:05.572Z,23.30
2023-01-15T21:30:33.526Z,23.67
2023-01-15T21:33:02.166Z,23.73
2023-01-15T21:35:30.102Z,27.87
2023-01-15T21:37:58.042Z,24.87
2023-01-15T21:40:26.148Z,25.47
2023-01-15T21:43:13.160Z,27.27
2023-01-15T21:45:41.275Z,26.07
2023-01-15T21:48:10.353Z,29.40
2023-01-15T21:50:40.811Z,25.50
2023-01-15T21:53:11.117Z,25.87
2023-01-15T21:55:39.127Z,31.37
2023-01-15T21:58:09.022Z,35.00
2023-01-15T22:00:37.325Z,33.20
2023-01-15T22:03:05.519Z,37.03
2023-01-15T22:05:34.422Z,35.73
2023-01-15T22:08:04.872Z,35.93
2023-01-15T22:10:32.984Z,36.57
2023-01-15T22:13:01.194Z,35.90
2023-01-15T22:15:30.506Z,34.70
2023-01-15T22:17:59.613Z,34.87
2023-01-15T22:20:27.663Z,36.43
2023-01-15T22:22:55.565Z,42.17
2023-01-15T22:25:23.646Z,36.90
2023-01-15T22:27:51.544Z,36.37
2023-01-15T22:30:19.801Z,37.70
2023-01-15T22:32:51.397Z,38.33
2023-01-15T22:35:19.663Z,38.03
2023-01-15T22:37:47.678Z,38.67
2023-01-15T22:40:15.678Z,34.80
2023-01-15T22:42:43.922Z,33.87
2023-01-15T22:45:12.439Z,34.90
2023-01-15T22:47:40.420Z,37.50
2023-01-15T22:50:12.120Z,36.87
2023-01-15T22:52:41.087Z,36.50
2023-01-15T22:55:10.385Z,37.50
2023-01-15T22:57:38.517Z,37.03
2023-01-15T23:00:08.414Z,38.33
2023-01-15T23:02:53.568Z,36.80
2023-01-15T23:05:24.170Z,37.27
2023-01-15T23:07:52.486Z,38.40
2023-01-15T23:10:20.501Z,38.83
2023-01-15T23:12:48.492Z,40.37
2023-01-15T23:15:16.472Z,37.17
2023-01-15T23:17:44.985Z,39.43
2023-01-15T23:20:14.131Z,39.90
2023-01-15T23:22:43.497Z,39.93
2023-01-15T23:25:11.451Z,40.20
2023-01-15T23:27:39.635Z,40.90
2023-01-15T23:30:08.925Z,41.43
2023-01-15T23:32:39.580Z,39.83
2023-01-15T23:35:08.493Z,39.17
2023-01-15T23:37:36.424Z,38.83
2023-01-15T23:40:06.705Z,39.00
2023-01-15T23:42:51.995Z,38.80
2023-01-15T23:45:37.026Z,38.53
2023-01-15T23:48:05.904Z,38.20
2023-01-15T23:50:33.893Z,38.17
2023-01-15T23:53:01.893Z,38.33
2023-01-15T23:55:31.292Z,34.67
2023-01-15T23:57:59.201Z,37.00
